createdAt,value
2022-11-05T00:00:16.634Z,100982.84
2022-11-05T00:03:01.364Z,100992.50
2022-11-05T00:05:46.577Z,100989.72
2022-11-05T00:08:31.964Z,100989.50
2022-11-05T00:10:58.451Z,100989.81
2022-11-05T00:13:43.484Z,100996.94
2022-11-05T00:16:28.137Z,100993.56
2022-11-05T00:19:06.558Z,100995.34
2022-11-05T00:21:53.489Z,100991.78
2022-11-05T00:24:38.789Z,100992.63
2022-11-05T00:27:05.618Z,101002.06
2022-11-05T00:29:31.984Z,101009.19
2022-11-05T00:31:58.362Z,101011.66
2022-11-05T00:34:24.708Z,101007.25
2022-11-05T00:36:51.260Z,101008.44
2022-11-05T00:39:17.634Z,101025.78
2022-11-05T00:41:43.999Z,101023.53
2022-11-05T00:44:29.191Z,101029.81
2022-11-05T00:47:15.572Z,101042.00
2022-11-05T00:49:41.957Z,101033.47
2022-11-05T00:52:26.978Z,101042.22
2022-11-05T00:54:53.352Z,101039.25
2022-11-05T00:57:19.727Z,101035.84
2022-11-05T00:59:46.085Z,101036.16
2022-11-05T01:02:12.662Z,101041.69
2022-11-05T01:04:39.052Z,101050.13
2022-11-05T01:07:05.421Z,101054.38
2022-11-05T01:09:31.736Z,101043.03
2022-11-05T01:11:58.104Z,101052.75
2022-11-05T01:14:24.507Z,101052.34
2022-11-05T01:16:50.871Z,101054.56
2022-11-05T01:19:17.327Z,101055.41
2022-11-05T01:21:43.686Z,101050.91
2022-11-05T01:24:10.722Z,101057.06
2022-11-05T01:26:37.058Z,101060.91
2022-11-05T01:29:03.548Z,101071.47
2022-11-05T01:31:29.981Z,101071.41
2022-11-05T01:33:56.414Z,101068.75
2022-11-05T01:36:22.800Z,101085.53
2022-11-05T01:38:49.173Z,101087.34
2022-11-05T01:41:15.508Z,101096.47
2022-11-05T01:43:48.340Z,101091.66
2022-11-05T01:46:19.887Z,101092.47
2022-11-05T01:48:48.064Z,101097.72
2022-11-05T01:51:18.564Z,101106.00
2022-11-05T01:53:51.558Z,101103.09
2022-11-05T01:56:26.531Z,101098.31
2022-11-05T01:59:08.669Z,101092.56
2022-11-05T02:01:35.280Z,101092.81
2022-11-05T02:04:19.210Z,101098.88
2022-11-05T02:06:46.635Z,101101.44
2022-11-05T02:09:20.553Z,101105.56
2022-11-05T02:11:48.236Z,101103.78
2022-11-05T02:14:14.636Z,101113.50
2022-11-05T02:16:52.203Z,101112.81
2022-11-05T02:19:24.560Z,101111.03
2022-11-05T02:22:15.149Z,101115.31
2022-11-05T02:25:00.148Z,101116.78
2022-11-05T02:27:37.330Z,101118.88
2022-11-05T02:30:03.663Z,101115.31
2022-11-05T02:32:40.220Z,101117.94
2022-11-05T02:35:09.542Z,101123.34
2022-11-05T02:37:51.771Z,101121.25
2022-11-05T02:40:28.970Z,101122.06
2022-11-05T02:43:15.992Z,101122.91
2022-11-05T02:46:00.931Z,101128.81
2022-11-05T02:48:37.348Z,101125.53
2022-11-05T02:51:23.759Z,101126.97
2022-11-05T02:53:58.283Z,101127.06
2022-11-05T02:56:31.168Z,101125.72
2022-11-05T02:58:57.587Z,101119.53
2022-11-05T03:01:24.078Z,101117.19
2022-11-05T03:03:57.599Z,101116.91
2022-11-05T03:07:00.887Z,101114.44
2022-11-05T03:10:11.775Z,101113.00
2022-11-05T03:12:57.080Z,101115.50
2022-11-05T03:15:48.659Z,101120.47
2022-11-05T03:18:18.252Z,101119.38
2022-11-05T03:21:09.461Z,101121.00
2022-11-05T03:24:04.068Z,101126.38
2022-11-05T03:26:34.075Z,101117.59
2022-11-05T03:29:09.815Z,101123.22
2022-11-05T03:31:39.613Z,101123.94
2022-11-05T03:34:07.855Z,101120.31
2022-11-05T03:36:41.834Z,101123.09
2022-11-05T03:39:12.656Z,101129.28
2022-11-05T03:41:44.300Z,101128.03
2022-11-05T03:44:15.791Z,101138.63
2022-11-05T03:46:49.230Z,101137.00
2022-11-05T03:49:25.723Z,101148.41
2022-11-05T03:52:06.106Z,101146.75
2022-11-05T03:54:34.024Z,101142.00
2022-11-05T03:57:20.739Z,101144.50
2022-11-05T03:59:49.954Z,101147.94
2022-11-05T04:02:18.927Z,101144.63
2022-11-05T04:04:46.278Z,101149.50
2022-11-05T04:07:31.394Z,101153.22
2022-11-05T04:10:16.552Z,101161.09
2022-11-05T04:13:01.520Z,101163.84
2022-11-05T04:15:29.554Z,101164.25
2022-11-05T04:17:58.802Z,101169.06
2022-11-05T04:20:44.987Z,101177.91
2022-11-05T04:23:29.842Z,101174.34
2022-11-05T04:25:56.207Z,101182.19
2022-11-05T04:28:42.521Z,101173.97
2022-11-05T04:31:08.932Z,101181.41
2022-11-05T04:33:35.251Z,101179.47
2022-11-05T04:36:01.608Z,101186.38
2022-11-05T04:38:27.993Z,101184.88
2022-11-05T04:41:13.152Z,101177.31
2022-11-05T04:43:39.790Z,101184.44
2022-11-05T04:46:06.360Z,101184.06
2022-11-05T04:48:32.762Z,101182.00
2022-11-05T04:50:59.154Z,101179.25
2022-11-05T04:53:25.555Z,101179.91
2022-11-05T04:55:51.980Z,101182.16
2022-11-05T04:58:18.308Z,101182.41
2022-11-05T05:00:44.733Z,101184.06
2022-11-05T05:03:11.666Z,101185.44
2022-11-05T05:05:38.311Z,101187.75
2022-11-05T05:08:05.678Z,101184.22
2022-11-05T05:10:32.758Z,101176.94
2022-11-05T05:12:59.062Z,101180.06
2022-11-05T05:15:25.383Z,101178.97
2022-11-05T05:17:52.542Z,101185.56
2022-11-05T05:20:38.489Z,101181.72
2022-11-05T05:23:05.026Z,101190.53
2022-11-05T05:25:31.491Z,101193.53
2022-11-05T05:27:58.573Z,101194.22
2022-11-05T05:30:25.382Z,101206.84
2022-11-05T05:32:51.737Z,101199.44
2022-11-05T05:35:18.092Z,101189.41
2022-11-05T05:37:44.544Z,101195.44
2022-11-05T05:40:11.777Z,101200.38
2022-11-05T05:42:42.881Z,101201.75
2022-11-05T05:45:10.764Z,101202.84
2022-11-05T05:47:37.193Z,101198.31
2022-11-05T05:50:03.993Z,101204.63
2022-11-05T05:52:30.387Z,101211.66
2022-11-05T05:54:56.713Z,101211.22
2022-11-05T05:57:23.074Z,101213.13
2022-11-05T05:59:49.442Z,101218.75
2022-11-05T06:02:16.061Z,101220.81
2022-11-05T06:04:42.495Z,101217.94
2022-11-05T06:07:08.803Z,101229.72
2022-11-05T06:09:35.154Z,101230.66
2022-11-05T06:12:01.547Z,101223.13
2022-11-05T06:14:27.897Z,101231.50
2022-11-05T06:16:54.255Z,101239.47
2022-11-05T06:19:20.662Z,101238.66
2022-11-05T06:21:47.036Z,101235.88
2022-11-05T06:24:13.370Z,101239.59
2022-11-05T06:26:42.823Z,101242.19
2022-11-05T06:29:10.494Z,101253.59
2022-11-05T06:31:37.128Z,101256.06
2022-11-05T06:34:03.505Z,101247.81
2022-11-05T06:36:29.911Z,101255.22
2022-11-05T06:38:56.266Z,101258.81
2022-11-05T06:41:22.657Z,101259.75
2022-11-05T06:43:48.999Z,101259.50
2022-11-05T06:46:15.539Z,101265.13
2022-11-05T06:48:41.874Z,101270.47
2022-11-05T06:51:08.530Z,101276.78
2022-11-05T06:53:35.658Z,101281.22
2022-11-05T06:56:05.676Z,101288.19
2022-11-05T06:58:32.283Z,101291.66
2022-11-05T07:01:08.455Z,101293.75
2022-11-05T07:03:36.465Z,101288.22
2022-11-05T07:06:04.491Z,101290.88
2022-11-05T07:08:32.456Z,101288.66
2022-11-05T07:10:59.577Z,101292.69
2022-11-05T07:13:26.037Z,101290.78
2022-11-05T07:15:52.593Z,101298.84
2022-11-05T07:18:19.300Z,101297.53
2022-11-05T07:20:45.663Z,101302.31
2022-11-05T07:23:14.070Z,101308.06
2022-11-05T07:25:42.143Z,101303.97
2022-11-05T07:28:09.582Z,101308.94
2022-11-05T07:30:36.604Z,101316.38
2022-11-05T07:33:03.676Z,101315.97
2022-11-05T07:35:30.188Z,101315.84
2022-11-05T07:37:57.037Z,101324.53
2022-11-05T07:40:26.011Z,101330.69
2022-11-05T07:42:55.186Z,101325.22
2022-11-05T07:45:22.168Z,101331.28
2022-11-05T07:47:51.059Z,101327.72
2022-11-05T07:50:19.569Z,101327.59
2022-11-05T07:52:46.481Z,101327.19
2022-11-05T07:55:13.352Z,101331.28
2022-11-05T07:57:47.618Z,101328.00
2022-11-05T08:00:20.054Z,101328.13
2022-11-05T08:03:12.055Z,101331.75
2022-11-05T08:05:41.945Z,101333.03
2022-11-05T08:08:09.427Z,101334.91
2022-11-05T08:10:37.302Z,101337.59
2022-11-05T08:13:04.954Z,101329.25
2022-11-05T08:15:31.949Z,101329.78
2022-11-05T08:17:59.728Z,101329.19
2022-11-05T08:20:26.296Z,101332.28
2022-11-05T08:22:53.588Z,101319.22
2022-11-05T08:25:20.562Z,101328.00
2022-11-05T08:27:46.975Z,101333.56
2022-11-05T08:30:13.400Z,101340.34
2022-11-05T08:32:39.749Z,101331.53
2022-11-05T08:35:06.477Z,101333.34
2022-11-05T08:37:32.944Z,101335.84
2022-11-05T08:39:59.363Z,101335.19
2022-11-05T08:42:25.755Z,101342.25
2022-11-05T08:44:52.156Z,101336.81
2022-11-05T08:47:18.544Z,101344.69
2022-11-05T08:49:44.921Z,101345.47
2022-11-05T08:52:11.248Z,101351.38
2022-11-05T08:54:37.660Z,101347.88
2022-11-05T08:57:04.270Z,101353.44
2022-11-05T08:59:31.436Z,101353.72
2022-11-05T09:01:57.984Z,101353.44
2022-11-05T09:04:24.569Z,101350.06
2022-11-05T09:06:51.242Z,101349.38
2022-11-05T09:09:17.674Z,101351.25
2022-11-05T09:12:10.459Z,101353.56
2022-11-05T09:14:31.509Z,101349.31
2022-11-05T09:16:57.875Z,101352.09
2022-11-05T09:19:24.481Z,101352.88
2022-11-05T09:21:50.818Z,101354.97
2022-11-05T09:24:17.480Z,101364.09
2022-11-05T09:26:43.837Z,101357.03
2022-11-05T09:29:14.264Z,101356.72
2022-11-05T09:31:42.060Z,101362.34
2022-11-05T09:34:09.249Z,101362.88
2022-11-05T09:36:36.097Z,101358.22
2022-11-05T09:39:03.163Z,101361.06
2022-11-05T09:41:35.781Z,101359.84
2022-11-05T09:44:27.120Z,101354.13
2022-11-05T09:47:02.870Z,101358.31
2022-11-05T09:49:40.013Z,101364.75
2022-11-05T09:52:13.831Z,101363.91
2022-11-05T09:54:40.404Z,101354.75
2022-11-05T09:57:12.487Z,101351.53
2022-11-05T09:59:45.830Z,101356.16
2022-11-05T10:02:34.271Z,101354.75
2022-11-05T10:05:09.757Z,101354.59
2022-11-05T10:07:51.180Z,101368.03
2022-11-05T10:10:45.224Z,101361.16
2022-11-05T10:13:33.280Z,101370.81
2022-11-05T10:16:14.094Z,101365.41
2022-11-05T10:18:49.386Z,101357.34
2022-11-05T10:21:27.782Z,101366.38
2022-11-05T10:24:14.663Z,101369.75
2022-11-05T10:26:41.631Z,101369.41
2022-11-05T10:29:12.907Z,101367.41
2022-11-05T10:31:39.899Z,101371.47
2022-11-05T10:34:08.228Z,101373.09
2022-11-05T10:36:37.121Z,101363.44
2022-11-05T10:39:15.537Z,101373.28
2022-11-05T10:42:02.347Z,101377.63
2022-11-05T10:44:37.279Z,101374.63
2022-11-05T10:47:31.007Z,101381.19
2022-11-05T10:50:02.670Z,101382.91
2022-11-05T10:52:35.887Z,101381.03
2022-11-05T10:55:16.116Z,101391.72
2022-11-05T10:57:42.831Z,101378.34
2022-11-05T11:00:15.478Z,101377.34
2022-11-05T11:02:43.576Z,101383.44
2022-11-05T11:05:18.748Z,101384.13
2022-11-05T11:08:03.548Z,101379.25
2022-11-05T11:10:37.838Z,101368.44
2022-11-05T11:13:04.262Z,101373.25
2022-11-05T11:15:35.112Z,101376.59
2022-11-05T11:18:35.875Z,101374.34
2022-11-05T11:21:12.975Z,101374.22
2022-11-05T11:23:41.335Z,101372.50
2022-11-05T11:26:10.234Z,101366.53
2022-11-05T11:28:39.295Z,101375.00
2022-11-05T11:31:12.403Z,101369.84
2022-11-05T11:33:42.458Z,101373.13
2022-11-05T11:36:11.689Z,101370.63
2022-11-05T11:38:39.099Z,101372.50
2022-11-05T11:41:16.127Z,101378.00
2022-11-05T11:43:44.154Z,101375.81
2022-11-05T11:46:17.856Z,101374.59
2022-11-05T11:48:47.546Z,101373.13
2022-11-05T11:51:16.869Z,101378.53
2022-11-05T11:53:43.401Z,101377.25
2022-11-05T11:56:16.201Z,101375.53
2022-11-05T11:58:51.139Z,101370.41
2022-11-05T12:01:25.989Z,101367.59
2022-11-05T12:04:07.654Z,101368.59
2022-11-05T12:06:52.499Z,101373.69
2022-11-05T12:09:36.285Z,101361.00
2022-11-05T12:12:11.559Z,101358.16
2022-11-05T12:14:40.208Z,101367.22
2022-11-05T12:17:36.731Z,101376.06
2022-11-05T12:20:12.156Z,101364.66
2022-11-05T12:22:38.480Z,101376.13
2022-11-05T12:25:37.219Z,101367.31
2022-11-05T12:28:18.856Z,101365.78
2022-11-05T12:30:59.904Z,101373.41
2022-11-05T12:33:42.341Z,101368.03
2022-11-05T12:36:42.230Z,101368.22
2022-11-05T12:39:19.612Z,101365.97
2022-11-05T12:42:38.888Z,101366.22
2022-11-05T12:45:19.818Z,101359.75
2022-11-05T12:48:12.256Z,101357.19
2022-11-05T12:51:02.330Z,101355.63
2022-11-05T12:53:34.746Z,101351.81
2022-11-05T12:56:07.247Z,101351.06
2022-11-05T12:58:45.299Z,101345.38
2022-11-05T13:01:21.002Z,101340.69
2022-11-05T13:04:01.512Z,101343.91
2022-11-05T13:06:35.573Z,101334.13
2022-11-05T13:09:05.375Z,101330.22
2022-11-05T13:11:48.240Z,101331.59
2022-11-05T13:14:21.465Z,101330.84
2022-11-05T13:16:53.229Z,101332.69
2022-11-05T13:19:46.356Z,101333.97
2022-11-05T13:22:25.323Z,101345.44
2022-11-05T13:25:10.492Z,101335.13
2022-11-05T13:27:52.468Z,101341.19
2022-11-05T13:30:25.061Z,101334.69
2022-11-05T13:33:22.558Z,101338.34
2022-11-05T13:36:17.320Z,101327.22
2022-11-05T13:39:00.571Z,101323.50
2022-11-05T13:41:51.738Z,101320.91
2022-11-05T13:44:53.235Z,101321.72
2022-11-05T13:47:39.128Z,101309.28
2022-11-05T13:50:26.326Z,101300.72
2022-11-05T13:53:14.553Z,101306.72
2022-11-05T13:55:44.037Z,101294.50
2022-11-05T13:58:17.187Z,101305.06
2022-11-05T14:00:56.653Z,101297.34
2022-11-05T14:03:23.537Z,101298.22
2022-11-05T14:05:57.879Z,101295.66
2022-11-05T14:08:27.681Z,101296.31
2022-11-05T14:11:02.022Z,101300.38
2022-11-05T14:13:39.170Z,101298.38
2022-11-05T14:16:09.733Z,101290.19
2022-11-05T14:18:45.343Z,101292.94
2022-11-05T14:21:27.177Z,101289.81
2022-11-05T14:24:01.630Z,101294.28
2022-11-05T14:26:30.343Z,101287.88
2022-11-05T14:29:02.471Z,101283.72
2022-11-05T14:32:07.316Z,101274.78
2022-11-05T14:34:47.574Z,101284.34
2022-11-05T14:37:25.598Z,101274.81
2022-11-05T14:39:53.774Z,101278.78
2022-11-05T14:42:23.570Z,101271.66
2022-11-05T14:45:22.637Z,101270.53
2022-11-05T14:48:01.148Z,101268.56
2022-11-05T14:50:41.737Z,101262.56
2022-11-05T14:53:32.076Z,101270.66
2022-11-05T14:56:27.796Z,101271.31
2022-11-05T14:59:31.485Z,101281.50
2022-11-05T15:02:03.736Z,101283.31
2022-11-05T15:04:33.207Z,101284.50
2022-11-05T15:07:02.703Z,101276.94
2022-11-05T15:09:34.634Z,101282.84
2022-11-05T15:12:04.328Z,101290.31
2022-11-05T15:14:35.115Z,101281.03
2022-11-05T15:17:17.168Z,101288.03
2022-11-05T15:19:45.600Z,101279.66
2022-11-05T15:22:43.594Z,101290.22
2022-11-05T15:25:17.911Z,101275.59
2022-11-05T15:28:03.983Z,101267.19
2022-11-05T15:30:31.000Z,101261.22
2022-11-05T15:33:09.692Z,101270.38
2022-11-05T15:35:41.167Z,101266.25
2022-11-05T15:38:36.878Z,101266.66
2022-11-05T15:41:06.621Z,101268.50
2022-11-05T15:43:33.006Z,101265.56
2022-11-05T15:46:15.741Z,101273.91
2022-11-05T15:48:46.762Z,101279.56
2022-11-05T15:51:13.398Z,101276.78
2022-11-05T15:54:15.597Z,101275.97
2022-11-05T15:56:37.433Z,101280.94
2022-11-05T15:59:07.142Z,101282.41
2022-11-05T16:01:36.597Z,101288.50
2022-11-05T16:04:24.174Z,101290.31
2022-11-05T16:06:53.788Z,101284.91
2022-11-05T16:09:29.245Z,101286.56
2022-11-05T16:12:24.109Z,101289.34
2022-11-05T16:14:56.577Z,101285.91
2022-11-05T16:17:26.669Z,101291.84
2022-11-05T16:19:53.764Z,101284.91
2022-11-05T16:22:20.568Z,101286.19
2022-11-05T16:24:47.079Z,101288.19
2022-11-05T16:27:19.819Z,101294.97
2022-11-05T16:29:50.827Z,101288.69
2022-11-05T16:32:30.820Z,101296.97
2022-11-05T16:35:01.662Z,101288.75
2022-11-05T16:37:39.635Z,101294.50
2022-11-05T16:40:22.898Z,101294.84
2022-11-05T16:42:51.513Z,101297.47
2022-11-05T16:45:20.850Z,101299.66
2022-11-05T16:47:47.923Z,101296.34
2022-11-05T16:50:20.199Z,101294.91
2022-11-05T16:52:47.208Z,101296.19
2022-11-05T16:55:14.922Z,101299.66
2022-11-05T16:57:43.486Z,101296.53
2022-11-05T17:00:18.059Z,101298.31
2022-11-05T17:02:45.085Z,101300.81
2022-11-05T17:05:27.554Z,101300.66
2022-11-05T17:07:54.609Z,101297.84
2022-11-05T17:10:21.948Z,101294.53
2022-11-05T17:12:49.395Z,101301.97
2022-11-05T17:15:26.595Z,101295.88
2022-11-05T17:17:54.204Z,101300.81
2022-11-05T17:20:43.827Z,101298.03
2022-11-05T17:23:13.326Z,101291.59
2022-11-05T17:25:46.724Z,101295.88
2022-11-05T17:28:13.486Z,101288.00
2022-11-05T17:30:41.738Z,101299.38
2022-11-05T17:33:10.421Z,101289.16
2022-11-05T17:35:41.047Z,101292.78
2022-11-05T17:38:08.467Z,101293.28
2022-11-05T17:40:36.209Z,101301.50
2022-11-05T17:43:03.413Z,101297.91
2022-11-05T17:45:30.099Z,101290.50
2022-11-05T17:47:56.472Z,101300.91
2022-11-05T17:50:22.998Z,101294.16
2022-11-05T17:52:49.422Z,101300.06
2022-11-05T17:55:17.174Z,101306.50
2022-11-05T17:57:48.402Z,101306.34
2022-11-05T18:00:24.055Z,101313.56
2022-11-05T18:02:52.687Z,101311.47
2022-11-05T18:05:20.190Z,101312.72
2022-11-05T18:07:47.422Z,101314.38
2022-11-05T18:10:14.205Z,101310.31
2022-11-05T18:12:41.052Z,101317.06
2022-11-05T18:15:08.658Z,101314.75
2022-11-05T18:17:35.372Z,101327.25
2022-11-05T18:20:02.154Z,101322.47
2022-11-05T18:22:28.602Z,101323.63
2022-11-05T18:24:55.040Z,101321.34
2022-11-05T18:27:24.504Z,101318.72
2022-11-05T18:29:51.208Z,101313.44
2022-11-05T18:32:17.648Z,101316.72
2022-11-05T18:34:44.037Z,101311.47
2022-11-05T18:37:10.475Z,101311.31
2022-11-05T18:39:37.171Z,101308.81
2022-11-05T18:42:03.671Z,101312.47
2022-11-05T18:44:32.712Z,101311.97
2022-11-05T18:47:02.835Z,101305.88
2022-11-05T18:49:29.215Z,101305.53
2022-11-05T18:51:55.559Z,101303.25
2022-11-05T18:54:22.001Z,101304.75
2022-11-05T18:56:48.430Z,101304.28
2022-11-05T19:02:04.455Z,101301.63
2022-11-05T19:04:30.890Z,101305.56
2022-11-05T19:07:01.671Z,101308.53
2022-11-05T19:09:31.151Z,101302.91
2022-11-05T19:11:57.533Z,101310.19
2022-11-05T19:14:24.107Z,101309.03
2022-11-05T19:16:50.562Z,101305.06
2022-11-05T19:19:16.977Z,101307.53
2022-11-05T19:21:43.336Z,101311.31
2022-11-05T19:24:10.146Z,101307.38
2022-11-05T19:26:36.563Z,101297.84
2022-11-05T19:29:03.717Z,101301.63
2022-11-05T19:31:32.295Z,101294.22
2022-11-05T19:34:00.916Z,101302.94
2022-11-05T19:36:27.801Z,101303.28
2022-11-05T19:38:59.952Z,101311.31
2022-11-05T19:41:27.123Z,101310.16
2022-11-05T19:43:54.863Z,101304.44
2022-11-05T19:46:24.028Z,101305.41
2022-11-05T19:48:51.050Z,101310.50
2022-11-05T19:51:22.968Z,101306.41
2022-11-05T19:53:52.288Z,101309.34
2022-11-05T19:56:24.430Z,101304.28
2022-11-05T19:58:52.938Z,101296.69
2022-11-05T20:01:20.879Z,101297.34
2022-11-05T20:03:47.475Z,101299.50
2022-11-05T20:06:28.254Z,101298.38
2022-11-05T20:11:44.946Z,101299.81
2022-11-05T20:14:11.270Z,101307.56
2022-11-05T20:16:39.058Z,101315.44
2022-11-05T20:19:08.195Z,101316.09
2022-11-05T20:21:34.801Z,101317.91
2022-11-05T20:24:01.366Z,101320.72
2022-11-05T20:26:28.544Z,101324.00
2022-11-05T20:28:55.363Z,101314.63
2022-11-05T20:31:21.896Z,101312.66
2022-11-05T20:33:48.473Z,101295.88
2022-11-05T20:36:22.047Z,101297.22
2022-11-05T20:38:55.090Z,101299.34
2022-11-05T20:41:21.926Z,101294.59
2022-11-05T20:43:48.433Z,101302.28
2022-11-05T20:46:17.643Z,101300.19
2022-11-05T20:48:44.664Z,101297.69
2022-11-05T20:51:14.443Z,101303.13
2022-11-05T20:53:41.124Z,101298.03
2022-11-05T20:56:10.293Z,101300.34
2022-11-05T20:58:37.995Z,101308.22
2022-11-05T21:01:05.638Z,101300.66
2022-11-05T21:03:32.590Z,101309.19
2022-11-05T21:06:01.973Z,101314.47
2022-11-05T21:08:28.947Z,101317.25
2022-11-05T21:10:56.384Z,101318.91
2022-11-05T21:13:24.055Z,101324.34
2022-11-05T21:15:53.263Z,101323.34
2022-11-05T21:18:21.908Z,101320.22
2022-11-05T21:20:48.655Z,101330.25
2022-11-05T21:23:15.694Z,101317.59
2022-11-05T21:25:43.654Z,101324.66
2022-11-05T21:28:11.600Z,101327.13
2022-11-05T21:30:41.568Z,101321.53
2022-11-05T21:33:08.633Z,101322.69
2022-11-05T21:35:39.107Z,101323.19
2022-11-05T21:38:05.422Z,101319.88
2022-11-05T21:40:32.682Z,101300.00
2022-11-05T21:42:59.048Z,101289.47
2022-11-05T21:45:26.024Z,101272.69
2022-11-05T21:47:52.421Z,101276.16
2022-11-05T21:50:45.279Z,101272.03
2022-11-05T21:53:34.467Z,101273.00
2022-11-05T21:56:24.834Z,101283.88
2022-11-05T21:59:09.631Z,101282.06
2022-11-05T22:01:36.134Z,101282.91
2022-11-05T22:04:03.361Z,101284.88
2022-11-05T22:06:32.934Z,101288.47
2022-11-05T22:08:59.831Z,101284.72
2022-11-05T22:11:26.258Z,101283.53
2022-11-05T22:13:53.311Z,101284.38
2022-11-05T22:16:19.789Z,101286.00
2022-11-05T22:18:46.266Z,101276.13
2022-11-05T22:21:18.153Z,101279.09
2022-11-05T22:23:44.813Z,101279.75
2022-11-05T22:26:11.230Z,101277.63
2022-11-05T22:28:37.612Z,101268.59
2022-11-05T22:31:03.997Z,101266.09
2022-11-05T22:33:30.944Z,101262.97
2022-11-05T22:35:57.279Z,101259.19
2022-11-05T22:38:23.680Z,101256.38
2022-11-05T22:40:50.293Z,101246.88
2022-11-05T22:43:16.800Z,101253.44
2022-11-05T22:45:43.836Z,101243.72
2022-11-05T22:48:10.583Z,101235.00
2022-11-05T22:50:37.286Z,101235.31
2022-11-05T22:53:03.851Z,101233.03
2022-11-05T22:55:30.328Z,101228.94
2022-11-05T22:57:56.875Z,101230.72
2022-11-05T23:00:37.139Z,101223.66
2022-11-05T23:03:03.838Z,101209.72
2022-11-05T23:05:30.351Z,101212.16
2022-11-05T23:08:15.600Z,101214.28
2022-11-05T23:11:00.894Z,101224.94
2022-11-05T23:13:27.285Z,101224.13
2022-11-05T23:16:12.032Z,101227.56
2022-11-05T23:18:56.828Z,101236.91
2022-11-05T23:21:41.486Z,101227.22
2022-11-05T23:24:08.245Z,101222.97
2022-11-05T23:26:51.240Z,101224.41
2022-11-05T23:29:23.877Z,101215.38
2022-11-05T23:32:09.596Z,101215.25
2022-11-05T23:34:36.670Z,101214.91
2022-11-05T23:37:24.742Z,101222.94
2022-11-05T23:39:51.300Z,101217.81
2022-11-05T23:42:36.388Z,101209.75
2022-11-05T23:45:23.238Z,101205.50
2022-11-05T23:48:08.625Z,101213.38
2022-11-05T23:50:39.571Z,101210.72
2022-11-05T23:53:06.591Z,101221.81
2022-11-05T23:55:32.986Z,101207.06
2022-11-05T23:57:59.307Z,101205.81
